Time;durP1;ratioP1;P1;durP2;ratioP2;P2;SDS_P1;SDS_P2;PMS_P1;PMS_P2;Temp;Humidity;BMP_temperature;BMP_pressure;BME280_temperature;BME280_humidity;BME280_pressure;Samples;Min_cycle;Max_cycle;Signal;HPM_P1;HPM_P2
2022/06/09 00:02:19;;;;;;;6.45;3.00;;;;;;;15.95;70.50;98638.06;4942411;28;20026;-93
2022/06/09 00:04:45;;;;;;;4.10;3.00;;;;;;;15.98;71.12;98633.94;4942385;28;20039;-95
2022/06/09 00:07:15;;;;;;;4.90;3.00;;;;;;;16.05;70.51;98641.59;4942194;28;20038;-94
2022/06/09 00:09:53;;;;;;;8.35;3.05;;;;;;;15.97;70.83;98632.34;4943556;28;20058;-93
2022/06/09 00:12:21;;;;;;;4.32;2.45;;;;;;;16.15;70.43;98650.19;4943399;28;20105;-94
2022/06/09 00:14:46;;;;;;;8.77;3.15;;;;;;;16.00;70.91;98644.47;4943097;28;20390;-94
2022/06/09 00:17:12;;;;;;;6.75;3.83;;;;;;;16.00;71.41;98658.03;4941991;28;20046;-95
2022/06/09 00:19:37;;;;;;;7.18;3.28;;;;;;;15.76;71.71;98622.13;4942154;28;20034;-92
2022/06/09 00:22:03;;;;;;;5.28;3.05;;;;;;;15.85;71.43;98641.13;4942205;28;20027;-91
2022/06/09 00:24:28;;;;;;;4.60;3.10;;;;;;;15.92;72.01;98667.81;4958155;28;20109;-95
2022/06/09 00:26:54;;;;;;;10.23;4.22;;;;;;;15.77;71.77;98650.06;4941864;28;20109;-95
2022/06/09 00:29:19;;;;;;;4.78;3.63;;;;;;;15.74;72.61;98661.59;4941901;28;20082;-93
2022/06/09 00:31:45;;;;;;;6.78;3.42;;;;;;;15.63;72.03;98641.28;4941911;28;20033;-95
2022/06/09 00:34:10;;;;;;;7.53;3.95;;;;;;;15.60;72.87;98664.41;4941841;28;20026;-94
2022/06/09 00:36:36;;;;;;;5.20;3.83;;;;;;;15.56;73.00;98653.44;4941975;28;20097;-94
2022/06/09 00:39:01;;;;;;;4.93;3.28;;;;;;;15.57;72.62;98652.28;4941764;28;20027;-93
2022/06/09 00:41:27;;;;;;;4.45;3.65;;;;;;;15.67;72.41;98653.91;4941981;28;20038;-94
2022/06/09 00:43:53;;;;;;;7.53;3.25;;;;;;;15.67;72.58;98648.47;4941496;28;20038;-93
2022/06/09 00:46:22;;;;;;;6.63;3.97;;;;;;;15.72;72.68;98661.91;4941599;28;20049;-94
2022/06/09 00:49:07;;;;;;;5.53;3.92;;;;;;;15.62;72.72;98648.63;4957593;28;20030;-93
2022/06/09 00:51:41;;;;;;;5.38;4.05;;;;;;;15.65;72.93;98644.50;4942431;28;20051;-94
2022/06/09 00:54:31;;;;;;;5.45;4.22;;;;;;;15.68;72.83;98655.47;4941673;28;20035;-95
2022/06/09 00:57:04;;;;;;;5.03;3.97;;;;;;;15.52;73.33;98643.50;4944156;28;20022;-93
2022/06/09 00:59:30;;;;;;;6.03;3.53;;;;;;;15.53;73.13;98664.91;4941759;28;20031;-95
2022/06/09 01:01:57;;;;;;;5.47;3.45;;;;;;;15.53;73.20;98670.31;4941080;28;20058;-95
2022/06/09 01:04:23;;;;;;;5.15;3.90;;;;;;;15.40;73.21;98646.88;4941542;28;20026;-94
2022/06/09 01:06:50;;;;;;;8.13;3.78;;;;;;;15.41;73.12;98653.88;4941200;28;20087;-94
2022/06/09 01:09:18;;;;;;;4.50;3.72;;;;;;;15.49;73.00;98666.66;4941409;28;20027;-94
2022/06/09 01:11:48;;;;;;;5.53;3.38;;;;;;;15.64;72.82;98681.66;4941193;28;20019;-94
2022/06/09 01:14:13;;;;;;;7.35;3.97;;;;;;;15.47;72.46;98659.97;4941481;28;20109;-95
2022/06/09 01:16:54;;;;;;;8.77;3.97;;;;;;;15.62;72.95;98691.25;4957277;28;20121;-94
2022/06/09 01:19:40;;;;;;;7.45;4.05;;;;;;;15.54;72.74;98673.84;4973321;28;20382;-93
2022/06/09 01:22:27;;;;;;;4.80;3.75;;;;;;;15.65;73.02;98688.69;4942966;28;20022;-94
2022/06/09 01:25:35;;;;;;;6.63;4.15;;;;;;;15.60;73.26;98688.06;4973402;28;20042;-93
2022/06/09 01:28:20;;;;;;;6.90;4.45;;;;;;;15.66;73.29;98693.00;4972985;28;20150;-94
2022/06/09 01:30:59;;;;;;;4.78;4.28;;;;;;;15.51;73.41;98663.63;4957555;28;20026;-93
2022/06/09 01:33:30;;;;;;;5.43;4.00;;;;;;;15.71;73.02;98694.78;4958601;28;20093;-94
2022/06/09 01:36:01;;;;;;;4.90;3.80;;;;;;;15.63;72.88;98693.66;4973221;28;20114;-94
2022/06/09 01:38:27;;;;;;;4.30;3.17;;;;;;;15.56;72.51;98686.00;4957447;28;20398;-93
2022/06/09 01:40:52;;;;;;;3.90;3.50;;;;;;;15.42;72.69;98679.91;4940841;28;20127;-94
2022/06/09 01:43:18;;;;;;;5.00;3.85;;;;;;;15.34;73.09;98676.06;4957492;28;20034;-94
2022/06/09 01:45:58;;;;;;;7.18;4.15;;;;;;;15.40;73.60;98690.28;4957461;28;20511;-94
2022/06/09 01:48:25;;;;;;;7.68;3.53;;;;;;;15.29;73.08;98678.13;4956816;28;20050;-93
2022/06/09 01:51:09;;;;;;;5.85;3.50;;;;;;;15.45;72.89;98694.75;4941655;28;20061;-94
2022/06/09 01:53:44;;;;;;;7.75;3.75;;;;;;;15.12;72.47;98660.69;4956892;28;20497;-94
2022/06/09 01:56:15;;;;;;;6.30;3.70;;;;;;;15.23;73.14;98684.81;4940988;28;20059;-93
2022/06/09 01:58:48;;;;;;;6.70;3.55;;;;;;;15.16;73.32;98688.78;4972749;28;20031;-94
2022/06/09 02:01:13;;;;;;;5.43;4.57;;;;;;;15.18;73.07;98687.69;4941522;28;20031;-94
2022/06/09 02:03:40;;;;;;;5.60;3.88;;;;;;;15.08;73.00;98677.91;4940913;28;20029;-95
2022/06/09 02:06:06;;;;;;;5.38;4.07;;;;;;;15.16;73.24;98693.41;4940846;28;20022;-94
2022/06/09 02:08:31;;;;;;;5.97;3.90;;;;;;;15.15;73.47;98689.13;4941229;28;20027;-92
2022/06/09 02:10:59;;;;;;;4.80;3.80;;;;;;;15.36;72.67;98692.03;4940894;28;20034;-95
2022/06/09 02:13:29;;;;;;;5.30;3.53;;;;;;;15.29;72.94;98684.38;4941103;28;20476;-92
2022/06/09 02:15:56;;;;;;;4.28;3.88;;;;;;;15.13;73.67;98689.41;4941876;28;20125;-92
2022/06/09 02:18:23;;;;;;;6.18;3.85;;;;;;;15.09;74.01;98688.47;4941558;28;20385;-94
2022/06/09 02:21:26;;;;;;;7.88;4.55;;;;;;;15.01;74.51;98680.31;4940464;28;20485;-91
2022/06/09 02:23:52;;;;;;;8.48;4.63;;;;;;;15.02;74.50;98695.44;4944081;28;20037;-91
2022/06/09 02:26:18;;;;;;;6.93;4.45;;;;;;;14.92;74.33;98691.09;4936605;28;20039;-92
2022/06/09 02:28:43;;;;;;;5.80;4.15;;;;;;;14.80;74.37;98680.88;4941183;28;20428;-91
2022/06/09 02:31:09;;;;;;;6.78;3.72;;;;;;;14.99;74.08;98701.50;4943886;28;20054;-91
2022/06/09 02:33:34;;;;;;;5.15;3.60;;;;;;;14.86;74.46;98689.66;4943785;28;20065;-92
2022/06/09 02:35:59;;;;;;;8.50;3.92;;;;;;;14.86;74.55;98703.22;4943646;28;20476;-93
2022/06/09 02:38:25;;;;;;;6.00;3.75;;;;;;;14.95;74.20;98706.75;4959584;28;20053;-91
2022/06/09 02:40:51;;;;;;;5.63;3.30;;;;;;;14.78;73.61;98696.66;4943731;28;20091;-92
2022/06/09 02:43:16;;;;;;;5.72;3.65;;;;;;;14.77;73.59;98705.09;4943672;28;20507;-92
2022/06/09 02:45:42;;;;;;;5.53;3.55;;;;;;;14.82;74.08;98724.72;4944111;28;20037;-92
2022/06/09 02:48:08;;;;;;;7.25;3.55;;;;;;;14.68;74.00;98708.56;4943575;28;20034;-92
2022/06/09 02:50:34;;;;;;;4.80;4.00;;;;;;;14.67;74.42;98704.25;4943246;28;20034;-92
2022/06/09 02:52:59;;;;;;;7.88;3.70;;;;;;;14.69;74.21;98695.78;4943500;28;20058;-92
2022/06/09 02:55:25;;;;;;;6.40;4.15;;;;;;;14.76;74.21;98720.56;4943568;28;20110;-92
2022/06/09 02:57:50;;;;;;;6.40;3.92;;;;;;;14.81;74.22;98717.69;4943939;28;20019;-92
2022/06/09 03:00:16;;;;;;;5.50;4.15;;;;;;;14.77;74.44;98710.50;4958906;28;20027;-93
2022/06/09 03:02:58;;;;;;;9.23;4.43;;;;;;;14.90;74.35;98731.28;4943854;28;20030;-93
2022/06/09 03:05:24;;;;;;;4.40;4.00;;;;;;;14.92;74.46;98729.88;4943641;28;20031;-92
2022/06/09 03:07:49;;;;;;;5.88;3.95;;;;;;;14.87;74.40;98719.16;4943659;28;20108;-92
2022/06/09 03:10:15;;;;;;;7.57;4.50;;;;;;;14.84;74.61;98719.78;4943432;28;20394;-94
2022/06/09 03:12:40;;;;;;;10.18;4.13;;;;;;;14.88;74.29;98714.53;4943225;28;20142;-92
2022/06/09 03:15:08;;;;;;;6.45;4.30;;;;;;;14.81;74.47;98695.22;4943073;28;20031;-91
2022/06/09 03:17:34;;;;;;;13.00;4.55;;;;;;;14.86;74.13;98695.09;4943535;28;20029;-92
2022/06/09 03:20:00;;;;;;;8.20;4.30;;;;;;;14.89;73.97;98689.03;4943309;28;20062;-92
2022/06/09 03:22:26;;;;;;;7.97;4.35;;;;;;;14.97;72.99;98704.53;4943168;28;20065;-91
2022/06/09 03:24:51;;;;;;;15.43;4.68;;;;;;;14.97;73.20;98706.44;4942807;28;20030;-90
2022/06/09 03:27:17;;;;;;;14.73;4.00;;;;;;;14.88;72.84;98685.53;4948782;28;20531;-91
2022/06/09 03:29:42;;;;;;;8.18;4.32;;;;;;;15.05;72.89;98706.47;4961726;28;20030;-91
2022/06/09 03:32:07;;;;;;;9.18;4.40;;;;;;;14.88;72.49;98663.84;4961509;28;20030;-92
2022/06/09 03:34:35;;;;;;;5.88;4.25;;;;;;;14.94;72.93;98678.84;4977838;28;20038;-91
2022/06/09 03:37:00;;;;;;;8.68;4.00;;;;;;;15.09;72.77;98687.66;4962792;28;20042;-93
2022/06/09 03:39:28;;;;;;;9.77;4.00;;;;;;;15.07;72.33;98670.91;4958217;28;20023;-94
2022/06/09 03:41:54;;;;;;;10.50;4.10;;;;;;;15.03;72.94;98673.44;4945831;28;20523;-95
2022/06/09 03:44:19;;;;;;;11.38;4.25;;;;;;;15.08;73.32;98672.50;4946192;28;20027;-93
2022/06/09 03:46:45;;;;;;;8.02;4.25;;;;;;;14.97;73.23;98655.72;4943136;28;20132;-94
2022/06/09 03:49:11;;;;;;;7.85;4.18;;;;;;;14.91;74.13;98675.97;4943859;28;20054;-94
2022/06/09 03:51:37;;;;;;;6.15;4.28;;;;;;;14.81;74.51;98665.41;4942874;28;20069;-94
2022/06/09 03:54:02;;;;;;;6.70;4.25;;;;;;;14.77;75.13;98669.84;4942765;28;20429;-94
2022/06/09 03:56:28;;;;;;;8.43;4.32;;;;;;;14.81;75.50;98668.91;4942775;28;20037;-93
2022/06/09 03:58:56;;;;;;;8.32;4.88;;;;;;;14.94;75.07;98672.59;4942427;28;20030;-94
2022/06/09 04:01:22;;;;;;;11.88;4.50;;;;;;;15.03;74.42;98645.53;4943238;28;20125;-93
2022/06/09 04:03:47;;;;;;;7.68;4.70;;;;;;;15.22;74.03;98656.09;4942479;28;20030;-91
2022/06/09 04:06:24;;;;;;;8.07;4.80;;;;;;;15.36;73.57;98657.56;4942679;28;20133;-93
2022/06/09 04:08:50;;;;;;;9.52;4.25;;;;;;;15.55;72.67;98670.03;4942251;28;20035;-93
2022/06/09 04:11:17;;;;;;;9.75;5.45;;;;;;;15.55;73.29;98661.88;4942590;28;20417;-94
2022/06/09 04:13:42;;;;;;;8.45;4.90;;;;;;;15.62;73.74;98680.41;4942375;28;20039;-94
2022/06/09 04:16:35;;;;;;;8.27;5.28;;;;;;;15.48;74.25;98664.25;4941604;28;20050;-92
2022/06/09 04:19:01;;;;;;;8.80;4.50;;;;;;;15.52;74.04;98666.03;4943351;28;20026;-91
2022/06/09 04:21:27;;;;;;;9.95;4.72;;;;;;;15.55;74.07;98654.53;4941475;28;20404;-91
2022/06/09 04:23:57;;;;;;;9.63;6.43;;;;;;;15.83;73.59;98677.88;4957439;28;20134;-91
2022/06/09 04:26:24;;;;;;;6.63;4.40;;;;;;;15.91;73.04;98661.56;4956832;28;20121;-92
2022/06/09 04:28:50;;;;;;;5.65;4.35;;;;;;;16.00;71.90;98664.28;4964653;28;20038;-91
2022/06/09 04:31:16;;;;;;;11.25;4.40;;;;;;;15.99;71.81;98640.16;4941124;28;20499;-91
2022/06/09 04:33:41;;;;;;;12.40;4.68;;;;;;;16.23;72.45;98666.78;4952891;28;20034;-94
2022/06/09 04:36:07;;;;;;;6.97;4.05;;;;;;;16.14;72.07;98645.06;4963101;28;20057;-93
2022/06/09 04:38:33;;;;;;;8.85;4.72;;;;;;;16.21;71.39;98639.13;4962360;28;20041;-94
2022/06/09 04:41:01;;;;;;;7.82;4.78;;;;;;;16.60;70.77;98675.31;4949168;28;20018;-94
2022/06/09 04:43:26;;;;;;;13.02;4.90;;;;;;;16.48;70.55;98646.13;4948230;28;20475;-94
2022/06/09 05:15:41;;;;;;;9.30;5.60;;;;;;;17.92;65.99;98691.34;4943547;28;20106;-95
2022/06/09 05:18:56;;;;;;;;;;;;;;;;;;;;;
2022/06/09 05:21:22;;;;;;;11.73;4.35;;;;;;;18.08;66.32;98693.47;4925590;29;20051;-92
2022/06/09 05:23:49;;;;;;;5.43;4.00;;;;;;;18.09;66.45;98704.03;4909158;29;20050;-94
2022/06/09 05:26:15;;;;;;;6.97;4.05;;;;;;;18.13;66.36;98694.03;4911014;28;20472;-90
2022/06/09 05:28:41;;;;;;;8.13;4.13;;;;;;;18.01;66.33;98682.31;4944830;28;20416;-93
2022/06/09 05:31:06;;;;;;;6.97;4.40;;;;;;;18.04;66.72;98682.44;4948691;28;20034;-93
2022/06/09 05:33:33;;;;;;;5.85;3.97;;;;;;;18.05;66.48;98677.78;4952765;28;20061;-96
2022/06/09 05:36:02;;;;;;;7.45;4.40;;;;;;;18.16;66.02;98678.97;4952460;28;20026;-95
2022/06/09 05:47:28;;;;;;;12.98;7.75;;;;;;;18.60;65.13;98692.94;5003908;28;20069;-96
2022/06/09 05:49:54;;;;;;;7.38;5.20;;;;;;;18.71;64.31;98704.97;4969824;28;20026;-93
2022/06/09 05:52:23;;;;;;;13.18;5.03;;;;;;;18.70;64.48;98678.06;4967393;28;20022;-92
2022/06/09 05:54:51;;;;;;;11.23;4.63;;;;;;;18.80;64.02;98672.19;5061964;23;20042;-92
2022/06/09 05:57:16;;;;;;;36.45;5.00;;;;;;;18.97;64.80;98682.09;4985146;28;20026;-92
2022/06/09 05:59:42;;;;;;;7.10;4.05;;;;;;;19.06;63.31;98676.50;4964263;28;20084;-92
2022/06/09 06:02:08;;;;;;;7.80;3.92;;;;;;;19.26;62.92;98675.56;4963811;28;20033;-95
2022/06/09 06:04:34;;;;;;;8.73;4.97;;;;;;;19.31;62.89;98683.53;4963800;28;20084;-92
2022/06/09 06:07:08;;;;;;;5.97;4.18;;;;;;;19.36;62.68;98677.84;4985077;28;20026;-92
2022/06/09 06:09:35;;;;;;;7.00;3.67;;;;;;;19.38;62.45;98655.63;4965017;28;20398;-91
2022/06/09 06:12:05;;;;;;;7.75;3.58;;;;;;;19.68;62.37;98679.94;4980315;28;20073;-91
2022/06/09 06:14:31;;;;;;;8.15;3.75;;;;;;;19.85;61.84;98674.19;4966748;28;20084;-94
2022/06/09 06:17:01;;;;;;;7.97;3.67;;;;;;;19.85;61.60;98654.28;4979759;28;20030;-90
2022/06/09 06:19:26;;;;;;;5.20;3.80;;;;;;;20.21;61.11;98690.78;4996047;28;20709;-96
2022/06/09 06:21:52;;;;;;;8.30;3.85;;;;;;;20.22;60.85;98668.56;4964457;28;20065;-92
2022/06/09 06:24:21;;;;;;;19.30;8.05;;;;;;;20.15;60.35;98651.97;4963249;28;20506;-93
2022/06/09 06:26:47;;;;;;;6.22;3.80;;;;;;;20.17;60.51;98652.41;4964603;28;20029;-93
2022/06/09 06:29:22;;;;;;;6.72;4.18;;;;;;;20.32;59.64;98648.13;4964103;28;20473;-92
2022/06/09 06:31:50;;;;;;;8.77;4.10;;;;;;;20.56;59.63;98660.84;4963815;28;20093;-92
2022/06/09 06:34:16;;;;;;;9.00;3.55;;;;;;;20.73;59.17;98673.41;4953437;28;20101;-89
2022/06/09 06:36:43;;;;;;;5.57;3.28;;;;;;;20.76;55.60;98661.75;4981789;28;20030;-95
2022/06/09 06:39:09;;;;;;;5.53;2.72;;;;;;;20.89;55.43;98665.19;4980923;28;20026;-94
2022/06/09 06:41:38;;;;;;;8.68;3.08;;;;;;;21.02;55.69;98663.91;4981348;28;20062;-96
2022/06/09 06:44:05;;;;;;;6.22;3.05;;;;;;;21.10;55.84;98670.38;4981794;28;20054;-96
2022/06/09 06:46:30;;;;;;;9.77;4.30;;;;;;;21.06;56.56;98670.28;4965355;28;20149;-93
2022/06/09 06:53:12;;;;;;;;;;;;;;;;;;;;;
2022/06/09 06:55:44;;;;;;;4.78;3.00;;;;;;;21.25;55.57;98655.06;4984765;28;20125;-94
2022/06/09 06:58:16;;;;;;;14.25;4.00;;;;;;;21.51;55.14;98666.22;4987041;28;20097;-96
2022/06/09 07:00:42;;;;;;;8.90;4.13;;;;;;;21.79;55.28;98678.94;4971668;28;20574;-96
2022/06/09 07:03:14;;;;;;;6.22;3.72;;;;;;;21.86;54.16;98661.84;4964580;28;20027;-95
2022/06/09 07:06:19;;;;;;;7.72;3.60;;;;;;;22.04;53.14;98671.22;4989609;28;20026;-96
2022/06/09 07:08:45;;;;;;;10.57;5.70;;;;;;;22.18;53.39;98657.78;4926807;29;20068;-93
2022/06/09 07:11:11;;;;;;;5.55;3.50;;;;;;;22.35;53.39;98651.06;4920334;29;20536;-95
2022/06/09 07:13:38;;;;;;;8.23;3.30;;;;;;;22.56;52.63;98652.59;4925832;29;20043;-93
2022/06/09 07:16:07;;;;;;;5.75;2.70;;;;;;;22.73;52.14;98660.31;4939937;28;20107;-93
2022/06/09 07:18:35;;;;;;;6.43;3.80;;;;;;;22.65;51.50;98655.09;4922305;29;20170;-95
2022/06/09 07:21:03;;;;;;;7.47;3.30;;;;;;;22.82;52.45;98656.53;4906217;29;20414;-94
2022/06/09 07:23:31;;;;;;;6.35;3.28;;;;;;;23.00;51.47;98674.06;4925570;29;20520;-91
2022/06/09 07:25:57;;;;;;;8.82;3.88;;;;;;;23.05;50.58;98668.28;4940514;29;20027;-93
2022/06/09 07:28:31;;;;;;;9.38;3.50;;;;;;;23.09;50.26;98665.59;4920850;29;20110;-93
2022/06/09 07:31:07;;;;;;;;;;;;;;;;;;;;;
2022/06/09 07:33:38;;;;;;;5.97;3.20;;;;;;;23.15;49.71;98650.38;4906887;29;20513;-93
2022/06/09 07:39:06;;;;;;;15.40;4.53;;;;;;;23.33;50.71;98665.16;4956533;28;20037;-92
2022/06/09 07:41:35;;;;;;;56.03;33.53;;;;;;;23.31;48.96;98653.75;4957826;28;20026;-93
2022/06/09 07:44:03;;;;;;;24.02;15.00;;;;;;;23.33;49.10;98651.44;4956432;28;20054;-93
2022/06/09 07:46:42;;;;;;;33.40;17.45;;;;;;;23.47;48.63;98653.59;4965862;28;20073;-96
2022/06/09 07:49:40;;;;;;;4.50;2.70;;;;;;;23.69;47.87;98665.63;4973246;28;20028;-95
2022/06/09 07:52:05;;;;;;;5.32;2.60;;;;;;;23.40;47.92;98653.47;4983570;28;20042;-92
2022/06/09 07:54:37;;;;;;;6.38;3.08;;;;;;;23.59;47.76;98658.84;4976286;28;20429;-93
2022/06/09 07:57:02;;;;;;;;;;;;;;;23.69;47.76;98667.59;4962995;28;20048;-90
2022/06/09 07:59:31;;;;;;;7.57;4.97;;;;;;;23.56;47.59;98642.31;4981531;28;19910;-92
2022/06/09 08:01:57;;;;;;;6.63;4.20;;;;;;;23.86;48.02;98658.00;4960843;28;20048;-92
2022/06/09 08:04:23;;;;;;;14.02;6.60;;;;;;;24.00;47.40;98658.19;4968917;28;20128;-90
2022/06/09 08:06:48;;;;;;;3.90;2.72;;;;;;;23.96;45.89;98649.88;4966748;28;20094;-91
2022/06/09 08:09:14;;;;;;;4.22;2.65;;;;;;;23.90;46.23;98636.84;4961938;28;20034;-92
2022/06/09 08:11:39;;;;;;;3.63;2.40;;;;;;;23.84;46.73;98639.13;4962211;28;20030;-92
2022/06/09 08:14:06;;;;;;;6.25;3.25;;;;;;;23.92;46.75;98635.28;4978195;28;20038;-95
2022/06/09 08:16:51;;;;;;;3.88;2.65;;;;;;;23.81;47.36;98648.16;4964699;28;20034;-93
2022/06/09 08:19:34;;;;;;;3.92;2.67;;;;;;;23.75;46.95;98646.88;4975803;28;20034;-96
2022/06/09 08:26:39;;;;;;;5.10;2.33;;;;;;;23.61;45.56;98628.22;4991137;28;20093;-96
2022/06/09 08:32:18;;;;;;;3.25;2.05;;;;;;;23.86;45.24;98655.25;5151997;23;20046;-95
2022/06/09 08:38:28;;;;;;;9.63;2.65;;;;;;;24.13;45.13;98650.44;4999012;28;20045;-93
2022/06/09 08:41:17;;;;;;;5.45;1.98;;;;;;;24.09;44.36;98644.13;4979737;28;20049;-94
2022/06/09 08:43:54;;;;;;;4.60;2.10;;;;;;;23.88;43.45;98633.69;4999694;28;20030;-94
2022/06/09 08:46:25;;;;;;;4.25;2.03;;;;;;;24.19;43.36;98643.44;4981009;28;20482;-94
2022/06/09 08:48:59;;;;;;;15.40;10.40;;;;;;;23.94;43.53;98619.22;4980763;28;20050;-94
2022/06/09 08:51:54;;;;;;;6.07;4.40;;;;;;;24.16;43.77;98616.69;4979786;28;20053;-94
2022/06/09 08:54:38;;;;;;;4.60;2.20;;;;;;;24.55;42.30;98632.78;4968100;28;20034;-94
2022/06/09 08:57:11;;;;;;;6.82;3.38;;;;;;;24.52;42.26;98612.31;4965424;28;20026;-95
2022/06/09 09:00:03;;;;;;;5.18;2.55;;;;;;;24.39;41.08;98598.03;4979752;28;20038;-93
2022/06/09 09:02:47;;;;;;;3.75;1.80;;;;;;;24.53;41.16;98627.69;4975713;28;20022;-93
2022/06/09 09:08:43;;;;;;;3.40;1.42;;;;;;;24.61;41.14;98609.25;4978218;28;20093;-93
2022/06/09 09:32:09;;;;;;;3.60;2.00;;;;;;;25.27;40.25;98592.78;4959305;28;20487;-95
2022/06/09 09:35:00;;;;;;;6.15;2.00;;;;;;;25.18;39.73;98571.06;4941784;29;20039;-94
2022/06/09 09:38:29;;;;;;;3.83;2.50;;;;;;;25.45;40.14;98589.31;4953671;28;20035;-94
2022/06/09 09:41:24;;;;;;;1.85;1.20;;;;;;;25.11;39.87;98557.25;4845326;29;20046;-91
2022/06/09 09:43:49;;;;;;;45.05;36.80;;;;;;;25.25;40.49;98559.31;4828799;29;20048;-92
2022/06/09 09:46:27;;;;;;;5.53;3.55;;;;;;;25.31;40.46;98563.25;4932959;29;20035;-90
2022/06/09 09:48:55;;;;;;;6.35;1.98;;;;;;;25.44;40.61;98571.19;4929656;28;20062;-91
2022/06/09 09:51:30;;;;;;;7.10;1.80;;;;;;;25.59;40.16;98567.31;4933031;29;20054;-95
2022/06/09 09:54:27;;;;;;;8.43;2.20;;;;;;;25.50;39.60;98547.59;4944274;28;20039;-94
2022/06/09 09:57:14;;;;;;;3.92;1.98;;;;;;;25.65;39.56;98576.00;4966994;28;20057;-95
2022/06/09 10:00:39;;;;;;;4.57;1.95;;;;;;;25.84;39.58;98559.13;4947996;28;20035;-96
2022/06/09 10:10:47;;;;;;;;;;;;;;;;;;;;;
2022/06/09 10:12:44;;;;;;;2.97;1.30;;;;;;;25.70;38.43;98539.78;4967146;28;20094;-94
2022/06/09 10:18:44;;;;;;;6.65;2.15;;;;;;;25.89;38.78;98544.97;4916314;29;20032;-93
2022/06/09 10:35:09;;;;;;;;;;;;;;;;;;;;;
2022/06/09 10:38:02;;;;;;;6.13;2.10;;;;;;;26.83;38.10;98511.81;4971429;28;20382;-92
2022/06/09 10:40:53;;;;;;;3.08;1.75;;;;;;;26.84;38.30;98494.06;4949151;29;20051;-93
2022/06/09 10:43:38;;;;;;;2.55;1.63;;;;;;;27.04;37.88;98513.72;4927509;29;20501;-93
2022/06/09 10:46:09;;;;;;;4.55;1.95;;;;;;;27.18;37.23;98513.66;4982078;28;20030;-92
2022/06/09 10:59:30;;;;;;;3.03;1.30;;;;;;;26.81;37.11;98477.09;4922931;29;20115;-95
2022/06/09 11:01:55;;;;;;;2.85;1.35;;;;;;;26.84;37.28;98494.06;4877958;29;20528;-92
2022/06/09 11:04:20;;;;;;;4.40;1.50;;;;;;;26.53;37.39;98491.72;4937418;28;20038;-91
2022/06/09 11:07:15;;;;;;;1.77;1.40;;;;;;;26.41;37.15;98503.97;4931603;28;20424;-94
2022/06/09 11:10:02;;;;;;;2.92;1.55;;;;;;;26.64;36.70;98513.03;4939185;28;20496;-93
2022/06/09 11:12:43;;;;;;;6.15;2.92;;;;;;;26.67;35.96;98506.75;4958852;28;20126;-91
2022/06/09 11:15:19;;;;;;;3.17;1.30;;;;;;;26.58;35.94;98479.50;4975054;28;20027;-94
2022/06/09 11:18:04;;;;;;;3.00;2.13;;;;;;;26.74;37.06;98485.38;4937607;28;20038;-93
2022/06/09 11:20:54;;;;;;;7.05;3.28;;;;;;;26.88;37.30;98464.44;4968021;28;20937;-93
2022/06/09 11:23:41;;;;;;;4.10;1.90;;;;;;;27.15;36.42;98470.25;4945775;28;20106;-94
2022/06/09 11:26:39;;;;;;;4.30;2.30;;;;;;;27.26;35.66;98454.41;4966777;28;20030;-91
2022/06/09 11:29:43;;;;;;;2.88;1.67;;;;;;;27.48;35.96;98463.38;4993708;28;20105;-93
2022/06/09 11:32:14;;;;;;;3.33;1.70;;;;;;;27.50;36.93;98438.88;4992959;28;20026;-94
2022/06/09 11:35:19;;;;;;;3.60;1.48;;;;;;;27.75;35.45;98468.34;4997850;28;20029;-92
2022/06/09 11:38:04;;;;;;;4.63;1.67;;;;;;;27.59;34.41;98463.31;4996154;28;20144;-93
2022/06/09 11:40:44;;;;;;;4.75;1.33;;;;;;;27.56;33.99;98461.38;4960981;28;20026;-95
2022/06/09 11:43:28;;;;;;;2.30;1.50;;;;;;;27.47;34.18;98472.84;4977749;28;20033;-94
2022/06/09 11:46:51;;;;;;;5.05;1.45;;;;;;;27.42;34.50;98449.19;4978081;28;20398;-94
2022/06/09 11:49:29;;;;;;;4.30;2.10;;;;;;;27.49;34.25;98429.00;4982563;28;20073;-92
2022/06/09 11:52:16;;;;;;;3.05;1.50;;;;;;;27.72;34.16;98436.72;4970263;28;20125;-95
2022/06/09 11:54:58;;;;;;;;;;;;;;;;;;;;;
2022/06/09 11:58:37;;;;;;;4.72;1.42;;;;;;;27.92;32.78;98430.69;4980917;28;20124;-94
2022/06/09 12:01:18;;;;;;;5.65;2.17;;;;;;;27.79;32.95;98447.75;4986453;28;20050;-95
2022/06/09 12:04:12;;;;;;;2.17;1.30;;;;;;;27.64;33.75;98446.28;4987014;28;20029;-91
2022/06/09 12:10:58;;;;;;;;;;;;;;;27.91;34.60;98442.94;4910690;28;20166;-93
2022/06/09 12:13:28;;;;;;;4.05;1.70;;;;;;;27.98;34.56;98440.91;4883819;29;19925;-94
2022/06/09 12:15:55;;;;;;;3.28;1.58;;;;;;;27.92;33.81;98425.16;4933592;28;20134;-91
2022/06/09 12:18:36;;;;;;;3.50;1.30;;;;;;;28.09;34.43;98446.34;4962548;28;20400;-93
2022/06/09 12:21:14;;;;;;;4.30;1.90;;;;;;;27.91;34.11;98418.03;4985937;28;20042;-93
2022/06/09 12:23:47;;;;;;;1.95;1.20;;;;;;;28.08;33.38;98432.91;4947065;28;20098;-92
2022/06/09 12:26:15;;;;;;;1.48;1.17;;;;;;;28.05;33.00;98453.13;4944449;28;20030;-93
2022/06/09 12:28:57;;;;;;;4.72;1.58;;;;;;;28.04;33.67;98441.25;4975904;28;20039;-95
2022/06/09 12:31:41;;;;;;;1.70;1.30;;;;;;;28.01;32.94;98442.84;4966624;28;20042;-94
2022/06/09 12:34:10;;;;;;;3.70;1.50;;;;;;;28.37;32.91;98456.38;4946266;28;20022;-94
2022/06/09 12:36:57;;;;;;;3.63;2.38;;;;;;;28.50;32.29;98444.81;4977078;28;20042;-95
2022/06/09 12:39:38;;;;;;;6.30;1.85;;;;;;;28.64;32.63;98447.41;4955519;28;20030;-92
2022/06/09 12:42:10;;;;;;;;;;;;;;;28.63;32.51;98468.00;4977154;28;20030;-92
2022/06/09 12:44:43;;;;;;;3.22;2.20;;;;;;;28.40;32.74;98440.91;4976147;28;19920;-91
2022/06/09 12:47:12;;;;;;;3.05;1.50;;;;;;;28.44;32.29;98468.56;4962269;28;20050;-93
2022/06/09 12:50:04;;;;;;;;;;;;;;;;;;;;;
2022/06/09 12:53:04;;;;;;;2.80;1.20;;;;;;;28.11;32.39;98432.88;4984176;28;20276;-93
2022/06/09 12:55:31;;;;;;;2.92;1.50;;;;;;;28.21;32.53;98456.91;4979642;28;20034;-91
2022/06/09 12:58:15;;;;;;;4.22;2.00;;;;;;;28.12;32.31;98459.38;4986764;28;20050;-93
2022/06/09 13:00:46;;;;;;;11.18;8.68;;;;;;;27.87;33.29;98437.47;5000504;28;20026;-93
2022/06/09 13:03:35;;;;;;;5.13;2.28;;;;;;;28.02;33.44;98465.78;4964063;28;20034;-95
2022/06/09 13:06:34;;;;;;;2.78;1.55;;;;;;;27.92;34.58;98437.00;4964699;28;20030;-93
2022/06/09 13:12:52;;;;;;;3.75;1.80;;;;;;;28.14;34.18;98450.66;4964814;28;20935;-92
2022/06/09 13:15:49;;;;;;;4.03;3.40;;;;;;;28.27;33.16;98462.81;4949179;28;20038;-93
2022/06/09 13:18:39;;;;;;;3.97;2.13;;;;;;;28.09;34.51;98428.97;4973731;28;20031;-93
2022/06/09 13:21:24;;;;;;;8.52;3.15;;;;;;;28.28;34.62;98446.97;5012577;28;20029;-94
2022/06/09 13:23:51;;;;;;;11.13;5.15;;;;;;;28.22;34.69;98430.00;4979191;28;20149;-93
2022/06/09 13:26:22;;;;;;;3.95;3.00;;;;;;;28.17;33.73;98447.06;4961677;28;20022;-93
2022/06/09 13:28:52;;;;;;;17.90;4.40;;;;;;;27.90;34.51;98420.03;4953329;28;20026;-92
2022/06/09 13:31:36;;;;;;;10.35;4.70;;;;;;;28.10;35.44;98424.97;4962947;28;20069;-91
2022/06/09 13:34:04;;;;;;;9.43;4.72;;;;;;;28.25;34.90;98433.97;4953669;28;20026;-94
2022/06/09 13:37:00;;;;;;;8.77;4.35;;;;;;;28.29;34.79;98443.78;4959494;28;20485;-93
2022/06/09 13:40:14;;;;;;;13.10;6.03;;;;;;;28.23;34.98;98441.88;4980202;28;20026;-96
2022/06/09 13:43:06;;;;;;;8.48;6.03;;;;;;;28.01;37.20;98442.84;4978844;28;20038;-94
2022/06/09 13:45:42;;;;;;;5.78;3.70;;;;;;;27.81;38.10;98419.69;4966769;28;20038;-94
2022/06/09 13:48:23;;;;;;;6.55;3.78;;;;;;;27.90;38.51;98436.63;4947957;28;20077;-92
2022/06/09 13:51:19;;;;;;;10.98;6.78;;;;;;;28.92;35.99;98417.78;4973434;28;20038;-94
2022/06/09 13:53:53;;;;;;;5.78;3.60;;;;;;;29.68;35.41;98456.38;4977281;28;20034;-92
2022/06/09 13:57:06;;;;;;;6.28;2.65;;;;;;;29.67;34.82;98416.72;5003101;28;20026;-94
2022/06/09 13:59:41;;;;;;;5.88;2.53;;;;;;;30.16;34.32;98427.44;4998155;28;20053;-93
2022/06/09 14:02:13;;;;;;;8.85;4.20;;;;;;;30.44;33.69;98419.81;4965747;28;20029;-95
2022/06/09 14:04:39;;;;;;;8.13;2.90;;;;;;;31.11;32.58;98425.22;4964715;28;20042;-94
2022/06/09 14:07:09;;;;;;;8.65;2.60;;;;;;;31.26;32.76;98429.28;4963524;28;20041;-95
2022/06/09 14:09:48;;;;;;;;;;;;;;;;;;;;;
2022/06/09 14:12:26;;;;;;;5.85;3.88;;;;;;;31.14;32.23;98400.13;4974279;28;20109;-96
2022/06/09 14:14:52;;;;;;;5.45;3.60;;;;;;;32.20;31.06;98411.91;4982705;28;20133;-94
2022/06/09 14:17:24;;;;;;;11.43;6.10;;;;;;;32.78;29.90;98416.69;4962634;28;20038;-93
2022/06/09 14:23:38;;;;;;;6.75;3.75;;;;;;;33.70;28.34;98403.16;4970184;28;20037;-95
2022/06/09 14:26:33;;;;;;;;;;;;;;;;;;;;;